sensor_id;sensor_type;location;lat;lon;timestamp;P1;durP1;ratioP1;P2;durP2;ratioP2
35290;SDS011;21411;50.024;19.220;2023-05-02T00:01:40;18.30;;;13.20;;
35290;SDS011;21411;50.024;19.220;2023-05-02T00:04:06;21.50;;;13.60;;
35290;SDS011;21411;50.024;19.220;2023-05-02T00:06:33;19.00;;;14.20;;
35290;SDS011;21411;50.024;19.220;2023-05-02T00:09:00;18.20;;;15.00;;
35290;SDS011;21411;50.024;19.220;2023-05-02T00:11:27;19.90;;;15.70;;
35290;SDS011;21411;50.024;19.220;2023-05-02T00:13:53;17.70;;;13.30;;
35290;SDS011;21411;50.024;19.220;2023-05-02T00:16:20;16.00;;;14.30;;
35290;SDS011;21411;50.024;19.220;2023-05-02T00:18:46;20.60;;;14.40;;
35290;SDS011;21411;50.024;19.220;2023-05-02T00:21:14;18.70;;;14.00;;
35290;SDS011;21411;50.024;19.220;2023-05-02T00:23:40;19.20;;;14.30;;
35290;SDS011;21411;50.024;19.220;2023-05-02T00:26:07;21.60;;;14.60;;
35290;SDS011;21411;50.024;19.220;2023-05-02T00:28:34;19.00;;;13.50;;
35290;SDS011;21411;50.024;19.220;2023-05-02T00:31:03;18.70;;;14.20;;
35290;SDS011;21411;50.024;19.220;2023-05-02T00:33:29;22.50;;;14.90;;
35290;SDS011;21411;50.024;19.220;2023-05-02T00:35:56;18.80;;;14.60;;
35290;SDS011;21411;50.024;19.220;2023-05-02T00:38:23;18.30;;;14.20;;
35290;SDS011;21411;50.024;19.220;2023-05-02T00:40:49;17.90;;;14.30;;
35290;SDS011;21411;50.024;19.220;2023-05-02T00:43:17;20.20;;;13.90;;
35290;SDS011;21411;50.024;19.220;2023-05-02T00:45:44;21.90;;;15.70;;
35290;SDS011;21411;50.024;19.220;2023-05-02T00:48:13;17.70;;;12.60;;
35290;SDS011;21411;50.024;19.220;2023-05-02T00:50:41;18.00;;;13.70;;
35290;SDS011;21411;50.024;19.220;2023-05-02T00:53:08;17.20;;;13.60;;
35290;SDS011;21411;50.024;19.220;2023-05-02T00:55:36;18.60;;;15.20;;
35290;SDS011;21411;50.024;19.220;2023-05-02T00:58:07;19.10;;;15.10;;
35290;SDS011;21411;50.024;19.220;2023-05-02T01:03:11;21.40;;;16.40;;
35290;SDS011;21411;50.024;19.220;2023-05-02T01:05:55;22.30;;;16.20;;
35290;SDS011;21411;50.024;19.220;2023-05-02T01:08:33;24.80;;;17.50;;
35290;SDS011;21411;50.024;19.220;2023-05-02T01:13:43;24.40;;;16.40;;
35290;SDS011;21411;50.024;19.220;2023-05-02T01:16:11;23.80;;;16.50;;
35290;SDS011;21411;50.024;19.220;2023-05-02T01:18:40;25.90;;;16.80;;
35290;SDS011;21411;50.024;19.220;2023-05-02T01:21:09;24.00;;;16.60;;
35290;SDS011;21411;50.024;19.220;2023-05-02T01:29:16;21.20;;;17.10;;
35290;SDS011;21411;50.024;19.220;2023-05-02T01:31:44;20.40;;;16.90;;
35290;SDS011;21411;50.024;19.220;2023-05-02T01:34:14;20.80;;;16.20;;
35290;SDS011;21411;50.024;19.220;2023-05-02T01:36:44;18.60;;;16.30;;
35290;SDS011;21411;50.024;19.220;2023-05-02T01:39:15;22.80;;;15.70;;
35290;SDS011;21411;50.024;19.220;2023-05-02T01:41:45;22.00;;;17.40;;
35290;SDS011;21411;50.024;19.220;2023-05-02T01:44:20;21.00;;;16.70;;
35290;SDS011;21411;50.024;19.220;2023-05-02T01:46:48;21.00;;;16.40;;
35290;SDS011;21411;50.024;19.220;2023-05-02T01:49:17;18.90;;;15.50;;
35290;SDS011;21411;50.024;19.220;2023-05-02T01:51:46;20.90;;;16.00;;
35290;SDS011;21411;50.024;19.220;2023-05-02T01:54:15;22.90;;;16.50;;
35290;SDS011;21411;50.024;19.220;2023-05-02T01:56:43;21.80;;;17.40;;
35290;SDS011;21411;50.024;19.220;2023-05-02T01:59:13;23.30;;;16.20;;
35290;SDS011;21411;50.024;19.220;2023-05-02T02:01:42;24.20;;;17.90;;
35290;SDS011;21411;50.024;19.220;2023-05-02T02:04:10;22.50;;;18.60;;
35290;SDS011;21411;50.024;19.220;2023-05-02T02:06:39;21.40;;;19.10;;
35290;SDS011;21411;50.024;19.220;2023-05-02T02:09:09;22.90;;;17.80;;
35290;SDS011;21411;50.024;19.220;2023-05-02T02:11:37;24.00;;;17.70;;
35290;SDS011;21411;50.024;19.220;2023-05-02T02:14:25;21.70;;;17.60;;
35290;SDS011;21411;50.024;19.220;2023-05-02T02:16:58;21.00;;;17.40;;
35290;SDS011;21411;50.024;19.220;2023-05-02T02:19:27;22.60;;;16.90;;
35290;SDS011;21411;50.024;19.220;2023-05-02T02:21:55;20.70;;;15.70;;
35290;SDS011;21411;50.024;19.220;2023-05-02T02:24:23;22.60;;;17.40;;
35290;SDS011;21411;50.024;19.220;2023-05-02T02:26:51;19.20;;;15.30;;
35290;SDS011;21411;50.024;19.220;2023-05-02T02:29:18;23.70;;;17.90;;
35290;SDS011;21411;50.024;19.220;2023-05-02T02:31:44;19.00;;;16.30;;
35290;SDS011;21411;50.024;19.220;2023-05-02T02:34:11;20.90;;;16.00;;
35290;SDS011;21411;50.024;19.220;2023-05-02T02:45:26;20.70;;;16.10;;
35290;SDS011;21411;50.024;19.220;2023-05-02T02:51:08;19.70;;;14.40;;
35290;SDS011;21411;50.024;19.220;2023-05-02T02:54:03;20.30;;;15.30;;
35290;SDS011;21411;50.024;19.220;2023-05-02T02:56:49;19.70;;;15.00;;
35290;SDS011;21411;50.024;19.220;2023-05-02T02:59:27;24.30;;;20.80;;
35290;SDS011;21411;50.024;19.220;2023-05-02T03:02:06;23.70;;;21.10;;
35290;SDS011;21411;50.024;19.220;2023-05-02T03:04:35;21.10;;;18.30;;
35290;SDS011;21411;50.024;19.220;2023-05-02T03:07:06;20.20;;;18.00;;
35290;SDS011;21411;50.024;19.220;2023-05-02T03:09:42;23.50;;;19.60;;
35290;SDS011;21411;50.024;19.220;2023-05-02T03:12:10;20.10;;;18.00;;
35290;SDS011;21411;50.024;19.220;2023-05-02T03:14:37;20.20;;;16.10;;
35290;SDS011;21411;50.024;19.220;2023-05-02T03:17:04;20.50;;;16.00;;
35290;SDS011;21411;50.024;19.220;2023-05-02T03:19:33;21.80;;;16.20;;
35290;SDS011;21411;50.024;19.220;2023-05-02T03:22:00;18.50;;;15.30;;
35290;SDS011;21411;50.024;19.220;2023-05-02T03:24:26;21.10;;;16.00;;
35290;SDS011;21411;50.024;19.220;2023-05-02T03:26:53;20.40;;;16.50;;
35290;SDS011;21411;50.024;19.220;2023-05-02T03:29:21;19.50;;;16.30;;
35290;SDS011;21411;50.024;19.220;2023-05-02T03:31:48;19.10;;;16.00;;
35290;SDS011;21411;50.024;19.220;2023-05-02T03:34:14;22.30;;;16.00;;
35290;SDS011;21411;50.024;19.220;2023-05-02T03:36:41;20.30;;;15.60;;
35290;SDS011;21411;50.024;19.220;2023-05-02T03:39:07;19.10;;;15.30;;
35290;SDS011;21411;50.024;19.220;2023-05-02T03:41:34;21.30;;;17.00;;
35290;SDS011;21411;50.024;19.220;2023-05-02T03:44:00;26.20;;;18.70;;
35290;SDS011;21411;50.024;19.220;2023-05-02T03:46:28;23.40;;;18.80;;
35290;SDS011;21411;50.024;19.220;2023-05-02T03:48:58;25.30;;;18.70;;
35290;SDS011;21411;50.024;19.220;2023-05-02T03:51:25;28.90;;;19.40;;
35290;SDS011;21411;50.024;19.220;2023-05-02T03:53:52;25.50;;;19.00;;
35290;SDS011;21411;50.024;19.220;2023-05-02T03:56:18;21.40;;;16.60;;
35290;SDS011;21411;50.024;19.220;2023-05-02T03:58:45;23.80;;;17.40;;
35290;SDS011;21411;50.024;19.220;2023-05-02T04:01:13;19.10;;;16.00;;
35290;SDS011;21411;50.024;19.220;2023-05-02T04:03:41;21.10;;;16.60;;
35290;SDS011;21411;50.024;19.220;2023-05-02T04:06:08;20.40;;;17.40;;
35290;SDS011;21411;50.024;19.220;2023-05-02T04:08:35;18.40;;;16.10;;
35290;SDS011;21411;50.024;19.220;2023-05-02T04:11:02;19.20;;;16.00;;
35290;SDS011;21411;50.024;19.220;2023-05-02T04:13:29;20.50;;;16.80;;
35290;SDS011;21411;50.024;19.220;2023-05-02T04:15:55;17.80;;;15.40;;
35290;SDS011;21411;50.024;19.220;2023-05-02T04:18:22;16.70;;;14.90;;
35290;SDS011;21411;50.024;19.220;2023-05-02T04:20:49;16.60;;;14.30;;
35290;SDS011;21411;50.024;19.220;2023-05-02T04:23:15;17.50;;;14.50;;
35290;SDS011;21411;50.024;19.220;2023-05-02T04:25:52;17.20;;;15.50;;
35290;SDS011;21411;50.024;19.220;2023-05-02T04:28:22;16.90;;;14.40;;
35290;SDS011;21411;50.024;19.220;2023-05-02T04:30:49;15.80;;;14.10;;
35290;SDS011;21411;50.024;19.220;2023-05-02T04:33:16;16.40;;;14.70;;
35290;SDS011;21411;50.024;19.220;2023-05-02T04:35:44;18.30;;;15.20;;
35290;SDS011;21411;50.024;19.220;2023-05-02T04:38:10;17.70;;;14.70;;
35290;SDS011;21411;50.024;19.220;2023-05-02T04:40:37;16.30;;;14.60;;
35290;SDS011;21411;50.024;19.220;2023-05-02T04:43:03;16.80;;;15.00;;
35290;SDS011;21411;50.024;19.220;2023-05-02T04:45:30;15.50;;;14.00;;
35290;SDS011;21411;50.024;19.220;2023-05-02T04:47:57;15.20;;;13.60;;
35290;SDS011;21411;50.024;19.220;2023-05-02T04:50:24;16.00;;;13.50;;
35290;SDS011;21411;50.024;19.220;2023-05-02T04:52:53;14.90;;;13.40;;
35290;SDS011;21411;50.024;19.220;2023-05-02T04:55:19;14.40;;;12.90;;
35290;SDS011;21411;50.024;19.220;2023-05-02T04:57:46;13.50;;;11.90;;
35290;SDS011;21411;50.024;19.220;2023-05-02T05:00:12;12.70;;;11.40;;
35290;SDS011;21411;50.024;19.220;2023-05-02T05:02:39;13.60;;;11.50;;
35290;SDS011;21411;50.024;19.220;2023-05-02T05:05:06;12.90;;;11.60;;
35290;SDS011;21411;50.024;19.220;2023-05-02T05:07:33;14.10;;;11.60;;
35290;SDS011;21411;50.024;19.220;2023-05-02T05:10:00;12.80;;;11.40;;
35290;SDS011;21411;50.024;19.220;2023-05-02T05:12:26;14.10;;;12.20;;
35290;SDS011;21411;50.024;19.220;2023-05-02T05:14:53;14.10;;;12.00;;
35290;SDS011;21411;50.024;19.220;2023-05-02T05:17:19;15.20;;;11.90;;
35290;SDS011;21411;50.024;19.220;2023-05-02T05:19:46;13.20;;;11.90;;
35290;SDS011;21411;50.024;19.220;2023-05-02T05:22:12;12.50;;;11.20;;
35290;SDS011;21411;50.024;19.220;2023-05-02T05:24:38;12.00;;;10.70;;
35290;SDS011;21411;50.024;19.220;2023-05-02T05:27:05;11.50;;;10.10;;
35290;SDS011;21411;50.024;19.220;2023-05-02T05:29:32;12.10;;;10.30;;
35290;SDS011;21411;50.024;19.220;2023-05-02T05:31:58;12.20;;;10.20;;
35290;SDS011;21411;50.024;19.220;2023-05-02T05:34:25;10.60;;;9.50;;
35290;SDS011;21411;50.024;19.220;2023-05-02T05:36:52;11.70;;;8.40;;
35290;SDS011;21411;50.024;19.220;2023-05-02T05:39:18;10.40;;;8.80;;
35290;SDS011;21411;50.024;19.220;2023-05-02T05:41:45;9.30;;;8.30;;
35290;SDS011;21411;50.024;19.220;2023-05-02T05:44:11;11.20;;;8.40;;
35290;SDS011;21411;50.024;19.220;2023-05-02T05:46:39;10.20;;;8.00;;
35290;SDS011;21411;50.024;19.220;2023-05-02T05:49:06;9.30;;;8.40;;
35290;SDS011;21411;50.024;19.220;2023-05-02T05:51:32;11.40;;;7.70;;
35290;SDS011;21411;50.024;19.220;2023-05-02T05:53:59;9.40;;;7.30;;
35290;SDS011;21411;50.024;19.220;2023-05-02T05:56:25;8.10;;;7.20;;
35290;SDS011;21411;50.024;19.220;2023-05-02T05:58:52;7.70;;;6.90;;
35290;SDS011;21411;50.024;19.220;2023-05-02T06:01:19;9.00;;;7.20;;
35290;SDS011;21411;50.024;19.220;2023-05-02T06:03:46;7.20;;;6.50;;
35290;SDS011;21411;50.024;19.220;2023-05-02T06:06:13;10.10;;;6.90;;
35290;SDS011;21411;50.024;19.220;2023-05-02T06:08:39;8.00;;;7.20;;
35290;SDS011;21411;50.024;19.220;2023-05-02T06:11:09;8.40;;;7.50;;
35290;SDS011;21411;50.024;19.220;2023-05-02T06:13:36;9.90;;;6.60;;
35290;SDS011;21411;50.024;19.220;2023-05-02T06:16:03;7.80;;;7.00;;
35290;SDS011;21411;50.024;19.220;2023-05-02T06:18:30;8.20;;;6.80;;
35290;SDS011;21411;50.024;19.220;2023-05-02T06:20:57;7.40;;;6.50;;
35290;SDS011;21411;50.024;19.220;2023-05-02T06:23:23;7.70;;;6.30;;
35290;SDS011;21411;50.024;19.220;2023-05-02T06:25:50;8.30;;;7.00;;
35290;SDS011;21411;50.024;19.220;2023-05-02T06:28:16;9.30;;;6.70;;
35290;SDS011;21411;50.024;19.220;2023-05-02T06:30:43;7.20;;;6.20;;
35290;SDS011;21411;50.024;19.220;2023-05-02T06:33:09;7.00;;;6.40;;
35290;SDS011;21411;50.024;19.220;2023-05-02T06:35:37;6.70;;;5.70;;
35290;SDS011;21411;50.024;19.220;2023-05-02T06:38:04;5.70;;;5.20;;
35290;SDS011;21411;50.024;19.220;2023-05-02T06:40:30;6.30;;;5.60;;
35290;SDS011;21411;50.024;19.220;2023-05-02T06:42:57;8.00;;;5.40;;
35290;SDS011;21411;50.024;19.220;2023-05-02T06:45:23;5.50;;;5.00;;
35290;SDS011;21411;50.024;19.220;2023-05-02T06:47:50;5.20;;;4.60;;
35290;SDS011;21411;50.024;19.220;2023-05-02T06:50:17;3.60;;;3.30;;
35290;SDS011;21411;50.024;19.220;2023-05-02T06:52:43;6.60;;;4.70;;
35290;SDS011;21411;50.024;19.220;2023-05-02T06:55:10;5.50;;;4.90;;
35290;SDS011;21411;50.024;19.220;2023-05-02T06:57:36;4.70;;;4.20;;
35290;SDS011;21411;50.024;19.220;2023-05-02T07:00:03;5.20;;;3.30;;
35290;SDS011;21411;50.024;19.220;2023-05-02T07:02:30;6.50;;;4.10;;
35290;SDS011;21411;50.024;19.220;2023-05-02T07:04:56;4.70;;;4.30;;
35290;SDS011;21411;50.024;19.220;2023-05-02T07:07:23;8.30;;;5.10;;
35290;SDS011;21411;50.024;19.220;2023-05-02T07:09:49;5.70;;;4.70;;
35290;SDS011;21411;50.024;19.220;2023-05-02T07:12:16;5.40;;;4.50;;
35290;SDS011;21411;50.024;19.220;2023-05-02T07:14:42;7.00;;;4.80;;
35290;SDS011;21411;50.024;19.220;2023-05-02T07:17:11;7.20;;;4.40;;
35290;SDS011;21411;50.024;19.220;2023-05-02T07:19:38;4.70;;;4.20;;
35290;SDS011;21411;50.024;19.220;2023-05-02T07:22:05;4.80;;;4.30;;
35290;SDS011;21411;50.024;19.220;2023-05-02T07:24:32;4.80;;;4.20;;
35290;SDS011;21411;50.024;19.220;2023-05-02T07:26:58;3.50;;;3.20;;
35290;SDS011;21411;50.024;19.220;2023-05-02T07:29:25;3.20;;;2.40;;
35290;SDS011;21411;50.024;19.220;2023-05-02T07:31:52;4.50;;;2.20;;
35290;SDS011;21411;50.024;19.220;2023-05-02T07:34:18;2.50;;;1.80;;
35290;SDS011;21411;50.024;19.220;2023-05-02T07:36:44;2.90;;;2.00;;
35290;SDS011;21411;50.024;19.220;2023-05-02T07:39:11;2.60;;;2.10;;
35290;SDS011;21411;50.024;19.220;2023-05-02T07:41:38;2.50;;;2.30;;
35290;SDS011;21411;50.024;19.220;2023-05-02T07:44:04;2.30;;;2.00;;
35290;SDS011;21411;50.024;19.220;2023-05-02T07:46:31;2.80;;;2.30;;
35290;SDS011;21411;50.024;19.220;2023-05-02T07:48:57;2.80;;;2.20;;
35290;SDS011;21411;50.024;19.220;2023-05-02T07:51:24;2.50;;;2.30;;
35290;SDS011;21411;50.024;19.220;2023-05-02T07:53:51;2.40;;;2.20;;
35290;SDS011;21411;50.024;19.220;2023-05-02T07:56:20;2.20;;;1.80;;
35290;SDS011;21411;50.024;19.220;2023-05-02T07:58:47;3.40;;;2.10;;
35290;SDS011;21411;50.024;19.220;2023-05-02T08:01:13;2.90;;;2.20;;
35290;SDS011;21411;50.024;19.220;2023-05-02T08:03:40;2.90;;;2.50;;
35290;SDS011;21411;50.024;19.220;2023-05-02T08:06:06;2.20;;;2.00;;
35290;SDS011;21411;50.024;19.220;2023-05-02T08:08:34;3.80;;;2.30;;
35290;SDS011;21411;50.024;19.220;2023-05-02T08:11:02;3.00;;;2.30;;
35290;SDS011;21411;50.024;19.220;2023-05-02T08:13:29;3.50;;;2.30;;
35290;SDS011;21411;50.024;19.220;2023-05-02T08:15:55;2.60;;;2.30;;
35290;SDS011;21411;50.024;19.220;2023-05-02T08:18:23;2.90;;;2.10;;
35290;SDS011;21411;50.024;19.220;2023-05-02T08:20:50;2.60;;;2.40;;
35290;SDS011;21411;50.024;19.220;2023-05-02T08:23:18;3.60;;;2.30;;
35290;SDS011;21411;50.024;19.220;2023-05-02T08:25:44;2.80;;;2.50;;
35290;SDS011;21411;50.024;19.220;2023-05-02T08:28:11;2.10;;;2.00;;
35290;SDS011;21411;50.024;19.220;2023-05-02T08:30:37;3.10;;;2.40;;
35290;SDS011;21411;50.024;19.220;2023-05-02T08:33:04;2.10;;;1.90;;
35290;SDS011;21411;50.024;19.220;2023-05-02T08:35:31;4.60;;;2.40;;
35290;SDS011;21411;50.024;19.220;2023-05-02T08:37:57;2.50;;;2.20;;
35290;SDS011;21411;50.024;19.220;2023-05-02T08:40:23;3.70;;;2.70;;
35290;SDS011;21411;50.024;19.220;2023-05-02T08:42:50;3.30;;;2.10;;
35290;SDS011;21411;50.024;19.220;2023-05-02T08:45:19;2.10;;;2.00;;
35290;SDS011;21411;50.024;19.220;2023-05-02T08:47:47;2.30;;;2.10;;
35290;SDS011;21411;50.024;19.220;2023-05-02T08:50:15;2.80;;;2.60;;
35290;SDS011;21411;50.024;19.220;2023-05-02T08:52:43;4.40;;;3.90;;
35290;SDS011;21411;50.024;19.220;2023-05-02T08:55:11;4.90;;;3.90;;
35290;SDS011;21411;50.024;19.220;2023-05-02T08:57:38;3.00;;;2.80;;
35290;SDS011;21411;50.024;19.220;2023-05-02T09:00:06;4.70;;;2.50;;
35290;SDS011;21411;50.024;19.220;2023-05-02T09:02:37;5.00;;;3.20;;
35290;SDS011;21411;50.024;19.220;2023-05-02T09:05:18;2.10;;;1.80;;
35290;SDS011;21411;50.024;19.220;2023-05-02T09:07:49;2.10;;;1.90;;
35290;SDS011;21411;50.024;19.220;2023-05-02T09:10:16;2.10;;;1.90;;
35290;SDS011;21411;50.024;19.220;2023-05-02T09:12:43;4.30;;;3.50;;
35290;SDS011;21411;50.024;19.220;2023-05-02T09:15:13;2.70;;;2.00;;
35290;SDS011;21411;50.024;19.220;2023-05-02T09:17:42;3.20;;;2.50;;
35290;SDS011;21411;50.024;19.220;2023-05-02T09:20:10;2.70;;;1.80;;
35290;SDS011;21411;50.024;19.220;2023-05-02T09:22:40;4.00;;;2.20;;
35290;SDS011;21411;50.024;19.220;2023-05-02T09:25:14;2.10;;;1.90;;
35290;SDS011;21411;50.024;19.220;2023-05-02T09:30:34;2.60;;;2.00;;
35290;SDS011;21411;50.024;19.220;2023-05-02T09:33:01;3.60;;;1.80;;
35290;SDS011;21411;50.024;19.220;2023-05-02T09:35:27;2.60;;;1.80;;
35290;SDS011;21411;50.024;19.220;2023-05-02T09:37:55;2.60;;;2.20;;
35290;SDS011;21411;50.024;19.220;2023-05-02T09:40:22;4.90;;;3.70;;
35290;SDS011;21411;50.024;19.220;2023-05-02T09:42:50;6.20;;;2.40;;
35290;SDS011;21411;50.024;19.220;2023-05-02T09:45:18;2.60;;;2.00;;
35290;SDS011;21411;50.024;19.220;2023-05-02T09:47:49;2.40;;;2.20;;
35290;SDS011;21411;50.024;19.220;2023-05-02T09:50:36;2.90;;;2.20;;
35290;SDS011;21411;50.024;19.220;2023-05-02T09:53:04;3.40;;;2.30;;
35290;SDS011;21411;50.024;19.220;2023-05-02T09:55:32;2.90;;;2.30;;
35290;SDS011;21411;50.024;19.220;2023-05-02T09:57:59;3.20;;;2.40;;
35290;SDS011;21411;50.024;19.220;2023-05-02T10:03:06;4.10;;;2.40;;
35290;SDS011;21411;50.024;19.220;2023-05-02T10:05:36;2.60;;;1.90;;
35290;SDS011;21411;50.024;19.220;2023-05-02T10:08:07;4.00;;;2.10;;
35290;SDS011;21411;50.024;19.220;2023-05-02T10:10:36;2.50;;;2.30;;
35290;SDS011;21411;50.024;19.220;2023-05-02T10:13:04;2.40;;;2.20;;
35290;SDS011;21411;50.024;19.220;2023-05-02T10:15:32;2.70;;;2.00;;
35290;SDS011;21411;50.024;19.220;2023-05-02T10:17:59;2.50;;;2.30;;
35290;SDS011;21411;50.024;19.220;2023-05-02T10:20:34;2.30;;;2.10;;
35290;SDS011;21411;50.024;19.220;2023-05-02T10:23:02;4.10;;;2.10;;
35290;SDS011;21411;50.024;19.220;2023-05-02T10:25:31;4.00;;;2.20;;
35290;SDS011;21411;50.024;19.220;2023-05-02T10:27:58;2.10;;;1.90;;
35290;SDS011;21411;50.024;19.220;2023-05-02T10:30:25;2.20;;;1.90;;
35290;SDS011;21411;50.024;19.220;2023-05-02T10:32:52;3.20;;;2.50;;
35290;SDS011;21411;50.024;19.220;2023-05-02T10:35:21;2.60;;;2.40;;
35290;SDS011;21411;50.024;19.220;2023-05-02T10:37:50;2.50;;;2.10;;
35290;SDS011;21411;50.024;19.220;2023-05-02T10:40:17;3.40;;;2.40;;
35290;SDS011;21411;50.024;19.220;2023-05-02T10:42:45;2.50;;;2.30;;
35290;SDS011;21411;50.024;19.220;2023-05-02T10:45:34;2.90;;;2.10;;
35290;SDS011;21411;50.024;19.220;2023-05-02T10:50:44;2.50;;;2.30;;
35290;SDS011;21411;50.024;19.220;2023-05-02T10:53:34;3.40;;;2.50;;
35290;SDS011;21411;50.024;19.220;2023-05-02T10:56:12;3.30;;;2.70;;
35290;SDS011;21411;50.024;19.220;2023-05-02T10:58:44;3.30;;;2.60;;
35290;SDS011;21411;50.024;19.220;2023-05-02T11:04:03;3.60;;;2.50;;
35290;SDS011;21411;50.024;19.220;2023-05-02T11:06:33;4.60;;;3.00;;
35290;SDS011;21411;50.024;19.220;2023-05-02T11:11:50;3.20;;;2.50;;
35290;SDS011;21411;50.024;19.220;2023-05-02T11:19:27;3.20;;;2.40;;
35290;SDS011;21411;50.024;19.220;2023-05-02T11:24:52;3.60;;;2.40;;
35290;SDS011;21411;50.024;19.220;2023-05-02T11:27:40;2.60;;;2.40;;
35290;SDS011;21411;50.024;19.220;2023-05-02T11:37:43;2.40;;;2.20;;
35290;SDS011;21411;50.024;19.220;2023-05-02T11:40:18;2.30;;;2.10;;
35290;SDS011;21411;50.024;19.220;2023-05-02T11:42:45;2.70;;;2.50;;
35290;SDS011;21411;50.024;19.220;2023-05-02T11:45:12;3.00;;;2.60;;
35290;SDS011;21411;50.024;19.220;2023-05-02T11:47:39;2.70;;;2.50;;
35290;SDS011;21411;50.024;19.220;2023-05-02T11:50:07;4.50;;;3.00;;
35290;SDS011;21411;50.024;19.220;2023-05-02T11:52:38;4.00;;;2.60;;
35290;SDS011;21411;50.024;19.220;2023-05-02T11:55:06;4.60;;;2.90;;
35290;SDS011;21411;50.024;19.220;2023-05-02T11:57:34;3.60;;;2.70;;
35290;SDS011;21411;50.024;19.220;2023-05-02T12:00:01;3.30;;;2.80;;
35290;SDS011;21411;50.024;19.220;2023-05-02T12:02:39;4.20;;;2.80;;
35290;SDS011;21411;50.024;19.220;2023-05-02T12:05:07;3.00;;;2.70;;
35290;SDS011;21411;50.024;19.220;2023-05-02T12:07:39;3.40;;;2.90;;
35290;SDS011;21411;50.024;19.220;2023-05-02T12:10:06;3.80;;;3.20;;
35290;SDS011;21411;50.024;19.220;2023-05-02T12:12:35;6.30;;;2.90;;
35290;SDS011;21411;50.024;19.220;2023-05-02T12:15:04;4.20;;;2.90;;
35290;SDS011;21411;50.024;19.220;2023-05-02T12:17:38;3.40;;;3.20;;
35290;SDS011;21411;50.024;19.220;2023-05-02T12:20:07;3.70;;;3.40;;
35290;SDS011;21411;50.024;19.220;2023-05-02T12:22:35;4.90;;;3.30;;
35290;SDS011;21411;50.024;19.220;2023-05-02T12:25:03;5.50;;;4.10;;
35290;SDS011;21411;50.024;19.220;2023-05-02T12:27:30;5.30;;;3.60;;
35290;SDS011;21411;50.024;19.220;2023-05-02T12:32:33;10.20;;;4.80;;
35290;SDS011;21411;50.024;19.220;2023-05-02T12:35:02;6.70;;;6.10;;
35290;SDS011;21411;50.024;19.220;2023-05-02T12:37:29;5.00;;;4.60;;
35290;SDS011;21411;50.024;19.220;2023-05-02T12:39:56;5.00;;;4.60;;
35290;SDS011;21411;50.024;19.220;2023-05-02T12:42:23;5.10;;;4.70;;
35290;SDS011;21411;50.024;19.220;2023-05-02T12:44:51;6.50;;;5.20;;
35290;SDS011;21411;50.024;19.220;2023-05-02T12:47:18;5.10;;;4.60;;
35290;SDS011;21411;50.024;19.220;2023-05-02T12:49:56;5.10;;;4.70;;
35290;SDS011;21411;50.024;19.220;2023-05-02T12:55:19;7.20;;;5.70;;
35290;SDS011;21411;50.024;19.220;2023-05-02T12:57:49;7.80;;;6.30;;
35290;SDS011;21411;50.024;19.220;2023-05-02T13:00:16;6.20;;;5.20;;
35290;SDS011;21411;50.024;19.220;2023-05-02T13:02:46;6.10;;;5.30;;
35290;SDS011;21411;50.024;19.220;2023-05-02T13:05:16;6.90;;;5.60;;
35290;SDS011;21411;50.024;19.220;2023-05-02T13:07:43;6.50;;;5.90;;
35290;SDS011;21411;50.024;19.220;2023-05-02T13:10:10;6.80;;;6.20;;
35290;SDS011;21411;50.024;19.220;2023-05-02T13:12:37;6.30;;;5.10;;
35290;SDS011;21411;50.024;19.220;2023-05-02T13:15:05;7.70;;;5.30;;
35290;SDS011;21411;50.024;19.220;2023-05-02T13:17:33;6.40;;;5.80;;
35290;SDS011;21411;50.024;19.220;2023-05-02T13:20:00;6.40;;;5.10;;
35290;SDS011;21411;50.024;19.220;2023-05-02T13:22:27;6.80;;;5.90;;
35290;SDS011;21411;50.024;19.220;2023-05-02T13:24:54;5.90;;;5.10;;
35290;SDS011;21411;50.024;19.220;2023-05-02T13:27:24;6.70;;;5.60;;
35290;SDS011;21411;50.024;19.220;2023-05-02T13:29:51;7.00;;;5.90;;
35290;SDS011;21411;50.024;19.220;2023-05-02T13:32:17;6.70;;;6.20;;
35290;SDS011;21411;50.024;19.220;2023-05-02T13:34:44;6.70;;;6.10;;
35290;SDS011;21411;50.024;19.220;2023-05-02T13:37:11;6.70;;;6.10;;
35290;SDS011;21411;50.024;19.220;2023-05-02T13:39:37;7.20;;;6.00;;
35290;SDS011;21411;50.024;19.220;2023-05-02T13:42:04;5.30;;;4.80;;
35290;SDS011;21411;50.024;19.220;2023-05-02T13:44:31;5.80;;;5.30;;
35290;SDS011;21411;50.024;19.220;2023-05-02T13:46:57;6.20;;;5.40;;
35290;SDS011;21411;50.024;19.220;2023-05-02T13:49:24;5.80;;;5.20;;
35290;SDS011;21411;50.024;19.220;2023-05-02T13:51:51;5.30;;;4.90;;
35290;SDS011;21411;50.024;19.220;2023-05-02T13:54:18;5.40;;;4.70;;
35290;SDS011;21411;50.024;19.220;2023-05-02T13:56:44;5.70;;;4.90;;
35290;SDS011;21411;50.024;19.220;2023-05-02T13:59:11;5.60;;;5.00;;
35290;SDS011;21411;50.024;19.220;2023-05-02T14:01:37;5.50;;;5.00;;
35290;SDS011;21411;50.024;19.220;2023-05-02T14:04:06;6.60;;;5.00;;
35290;SDS011;21411;50.024;19.220;2023-05-02T14:06:34;5.80;;;5.30;;
35290;SDS011;21411;50.024;19.220;2023-05-02T14:09:01;4.70;;;4.20;;
35290;SDS011;21411;50.024;19.220;2023-05-02T14:11:27;5.80;;;4.30;;
35290;SDS011;21411;50.024;19.220;2023-05-02T14:13:54;7.00;;;5.20;;
35290;SDS011;21411;50.024;19.220;2023-05-02T14:16:23;6.60;;;4.50;;
35290;SDS011;21411;50.024;19.220;2023-05-02T14:18:49;5.10;;;4.70;;
35290;SDS011;21411;50.024;19.220;2023-05-02T14:21:16;5.10;;;4.60;;
35290;SDS011;21411;50.024;19.220;2023-05-02T14:23:42;5.60;;;5.00;;
35290;SDS011;21411;50.024;19.220;2023-05-02T14:26:09;4.70;;;4.30;;
35290;SDS011;21411;50.024;19.220;2023-05-02T14:28:36;4.30;;;3.90;;
35290;SDS011;21411;50.024;19.220;2023-05-02T14:31:02;4.70;;;4.30;;
35290;SDS011;21411;50.024;19.220;2023-05-02T14:33:29;4.60;;;4.00;;
35290;SDS011;21411;50.024;19.220;2023-05-02T14:35:55;4.30;;;3.80;;
35290;SDS011;21411;50.024;19.220;2023-05-02T14:38:22;5.10;;;4.60;;
35290;SDS011;21411;50.024;19.220;2023-05-02T14:40:49;6.40;;;5.00;;
35290;SDS011;21411;50.024;19.220;2023-05-02T14:43:15;8.40;;;6.30;;
35290;SDS011;21411;50.024;19.220;2023-05-02T14:45:42;7.30;;;6.50;;
35290;SDS011;21411;50.024;19.220;2023-05-02T14:48:08;9.30;;;6.30;;
35290;SDS011;21411;50.024;19.220;2023-05-02T14:50:36;5.70;;;5.10;;
35290;SDS011;21411;50.024;19.220;2023-05-02T14:53:04;9.30;;;5.40;;
35290;SDS011;21411;50.024;19.220;2023-05-02T14:55:35;5.60;;;4.40;;
35290;SDS011;21411;50.024;19.220;2023-05-02T14:58:02;5.30;;;4.70;;
35290;SDS011;21411;50.024;19.220;2023-05-02T15:00:28;6.50;;;4.60;;
35290;SDS011;21411;50.024;19.220;2023-05-02T15:02:54;7.80;;;4.80;;
35290;SDS011;21411;50.024;19.220;2023-05-02T15:05:21;5.30;;;4.40;;
35290;SDS011;21411;50.024;19.220;2023-05-02T15:07:47;5.30;;;4.10;;
35290;SDS011;21411;50.024;19.220;2023-05-02T15:10:14;4.70;;;4.30;;
35290;SDS011;21411;50.024;19.220;2023-05-02T15:12:40;5.50;;;4.80;;
35290;SDS011;21411;50.024;19.220;2023-05-02T15:15:08;5.10;;;4.60;;
35290;SDS011;21411;50.024;19.220;2023-05-02T15:17:35;6.50;;;4.10;;
35290;SDS011;21411;50.024;19.220;2023-05-02T15:20:01;4.90;;;4.40;;
35290;SDS011;21411;50.024;19.220;2023-05-02T15:22:29;5.90;;;5.40;;
35290;SDS011;21411;50.024;19.220;2023-05-02T15:24:56;6.80;;;6.00;;
35290;SDS011;21411;50.024;19.220;2023-05-02T15:27:22;8.70;;;5.70;;
35290;SDS011;21411;50.024;19.220;2023-05-02T15:29:49;6.50;;;5.80;;